Historyczne dane pomiarowe

Dodano dane terminowe – wersja testowa.

Dane z okresu 1951-2019

Wersja bazy: 1.34 [2019-03-16, lista zmian], aktualizacja planowana na 2019-04-15

Dane meteo z obszaru Polski uzyskane na podstawie danych udostępnionych przez Instytut Meteorologii i Gospodarki Wodnej – Państwowy Instytut Badawczy.

 

Wybierz Datę:    

       

TemperaturaWilgotnośćWiatrCiśnienieOpadyŚniegCzas trwania zjawisk
 Stacja t tx tn tng RH VA  wxwx mslp ppp RRR   cm mm wxwxwxwxwxwxwx
1987-08-14 13.1 16.0 7.0 3.4 88.3- 6.0 4.0---- 6.9------------
1987-08-13 13.4 19.2 6.0 2.9 73.0- 0.7 2.3---- 0.0------------
1987-08-12 12.5 17.7 6.7 2.5 83.3- 3.7 1.3---- 0.0------------
1987-08-11 12.5 16.7 10.2 9.3 92.8- 6.3 2.3---- 2.3------------
1987-08-10 14.1 17.8 11.6 11.4 89.3- 6.3 5.0---- 12.4------------
1987-08-09 15.6 23.3 8.7 5.4 81.3- 3.0 3.0---- 2.0------------
1987-08-08 14.1 21.0 8.2 7.2 75.3- 1.7 3.7---- 0.0------------
1987-08-07 10.8 16.2 4.5 1.5 86.0- 5.3 5.0---- 2.7------------
1987-08-06 10.7 14.5 9.0 7.4 84.3- 5.7 5.0---- 0.6------------
1987-08-05 12.3 16.7 6.4 2.7 80.0- 4.7 5.0---- 0.4------------
1987-08-04 13.8 16.9 11.4 8.1 81.8- 5.3 2.7---- 0.2------------
1987-08-03 14.5 19.6 8.6 5.4 80.0- 4.7 2.0---- 0.0------------
1987-08-02 13.7 19.3 10.9 10.0 84.5- 7.3 4.0---- 8.6------------
1987-08-01 15.7 19.2 12.2 11.8 86.0- 8.0 4.7---- 6.0------------
1987-07-31 15.3 19.4 13.4 13.2 91.5- 8.0 5.0---- 0.3------------
1987-07-30 16.7 24.1 7.2 4.4 82.0- 2.7 2.0---- 8.6------------
1987-07-29 14.0 19.4 10.6 9.7 81.8- 7.3 3.0---- 0.2------------
1987-07-28 12.8 14.7 11.4 11.0 88.0- 8.0 3.7---- 2.7------------
1987-07-27 12.8 17.2 7.7 5.9 75.0- 8.0 5.7---- 1.4------------
1987-07-26 12.7 14.9 11.0 10.8 91.0- 6.0 3.3---- 0.7------------
1987-07-25 17.3 22.2 14.1 11.3 87.5- 6.3 1.7---- 4.5------------
1987-07-24 19.3 24.6 15.0 13.2 85.0- 3.0 1.7---- 1.0------------
1987-07-23 20.6 27.1 11.9 8.8 77.5- 1.0 0.7---- 0.1------------
1987-07-22 18.2 22.8 15.0 14.9 84.5- 3.3 2.3---- 0.0------------
1987-07-21 18.9 24.6 11.0 8.3 77.0- 3.0 3.0---- 1.4------------
1987-07-20 16.9 21.7 15.0 14.3 93.3- 8.0 4.3---- 0.0------------
1987-07-19 20.0 22.9 16.4 15.3 88.8- 5.3 3.0---- 6.2------------
1987-07-18 21.6 25.7 15.2 12.6 85.5- 0.0 3.7---- 0.0------------
1987-07-17 21.8 28.5 15.6 13.6 75.3- 3.7 5.0---- 0.0------------
1987-07-16 20.1 26.9 12.2 10.8 67.5- 0.0 3.7---- 3.3------------
1987-07-15 16.6 23.1 8.2 7.0 70.5- 0.3 3.0---- 0.0------------
1987-07-14 16.2 20.7 7.2 5.9 71.0- 1.3 3.0---- 0.0------------
1987-07-13 16.2 23.8 13.3 11.6 83.0- 1.3 4.3---- 0.0------------
1987-07-12 19.3 27.1 14.3 11.8 80.3- 1.0 7.7---- 2.6------------
1987-07-11 16.8 23.1 8.7 5.4 72.5- 1.3 4.0---- 0.0------------
1987-07-10 14.0 18.2 9.6 8.3 79.8- 1.7 2.7---- 0.0------------
1987-07-09 16.2 21.8 14.2 14.1 98.3- 8.0 3.7---- 2.7------------
1987-07-08 21.1 27.7 15.1 10.2 70.8- 3.7 2.0---- 7.7------------
1987-07-07 19.0 25.3 9.8 6.3 67.3- 0.0 2.0---- 0.0------------
1987-07-06 18.6 24.0 9.1 5.7 69.0- 0.0 0.0---- 0.0------------
1987-07-05 16.2 19.7 10.1 8.5 78.0- 5.0 2.7---- 0.0------------
1987-07-04 17.8 22.5 10.4 7.5 74.5- 5.0 2.7---- 0.0------------
1987-07-03 19.0 23.3 13.3 10.8 77.0- 2.7 1.7---- 0.0------------
1987-07-02 17.1 20.8 13.9 13.8 94.0- 6.7 0.7---- 21.0------------
1987-07-01 23.4 30.3 18.1 14.2 78.8- 2.7 3.3---- 0.1------------
1987-06-30 23.4 29.7 15.3 12.7 75.3- 0.0 2.0---- 0.0------------
1987-06-29 20.6 25.9 14.8 11.5 81.0- 2.7 0.7---- 0.0------------
1987-06-28 17.8 23.5 12.1 8.3 84.8- 4.0 4.3---- 0.0------------
1987-06-27 16.3 20.0 14.8 14.3 94.3- 8.0 3.0---- 0.0------------
1987-06-26 17.3 23.6 9.0 4.9 74.3- 5.3 4.3---- 16.8------------
1987-06-25 13.7 17.7 11.0 11.0 83.8- 5.0 5.0---- 0.0------------
1987-06-24 15.6 20.6 10.6 8.6 80.5- 4.0 3.0---- 3.3------------
1987-06-23 15.6 20.4 11.6 8.8 77.0- 3.0 3.0---- 0.0------------
1987-06-22 14.5 18.6 12.6 11.6 91.3- 8.0 3.7---- 0.0------------
1987-06-21 16.0 22.2 8.2 4.9 81.8- 5.3 3.0---- 1.2------------
1987-06-20 13.9 20.2 7.1 4.9 80.8- 1.0 3.7---- 0.3------------
1987-06-19 12.0 17.2 7.4 6.3 80.5- 2.3 3.0---- 0.7------------
1987-06-18 10.8 13.6 6.3 4.4 80.8- 5.3 4.3---- 6.8------------
1987-06-17 11.6 15.7 8.2 7.0 77.3- 0.0 5.0---- 0.2------------
1987-06-16 11.6 24.9 9.2 9.0 90.8- 8.0 4.3---- 3.7------------
475.5 ms

 

Źródłem pochodzenia danych jest Instytut Meteorologii i Gospodarki Wodnej – Państwowy Instytut Badawczy. Dane Instytutu Meteorologii i Gospodarki Wodnej – Państwowego Instytutu Badawczego zostały przetworzone.

Dane źródłowe można odnaleźć na stronie https://dane.imgw.pl